sensor_id;sensor_type;location;lat;lon;timestamp;P1;durP1;ratioP1;P2;durP2;ratioP2
7503;SDS011;3793;48.136;11.536;2024-01-30T00:00:23;11.60;;;6.27;;
7503;SDS011;3793;48.136;11.536;2024-01-30T00:02:50;8.90;;;5.30;;
7503;SDS011;3793;48.136;11.536;2024-01-30T00:05:17;7.43;;;5.50;;
7503;SDS011;3793;48.136;11.536;2024-01-30T00:07:45;9.73;;;5.10;;
7503;SDS011;3793;48.136;11.536;2024-01-30T00:10:11;8.83;;;5.17;;
7503;SDS011;3793;48.136;11.536;2024-01-30T00:12:38;9.77;;;5.20;;
7503;SDS011;3793;48.136;11.536;2024-01-30T00:15:05;10.73;;;5.27;;
7503;SDS011;3793;48.136;11.536;2024-01-30T00:17:34;9.90;;;6.07;;
7503;SDS011;3793;48.136;11.536;2024-01-30T00:20:01;9.27;;;5.50;;
7503;SDS011;3793;48.136;11.536;2024-01-30T00:22:30;14.10;;;5.67;;
7503;SDS011;3793;48.136;11.536;2024-01-30T00:24:58;7.57;;;5.17;;
7503;SDS011;3793;48.136;11.536;2024-01-30T00:27:25;14.00;;;5.10;;
7503;SDS011;3793;48.136;11.536;2024-01-30T00:29:52;8.73;;;5.80;;
7503;SDS011;3793;48.136;11.536;2024-01-30T00:32:18;8.53;;;5.33;;
7503;SDS011;3793;48.136;11.536;2024-01-30T00:34:45;9.93;;;5.47;;
7503;SDS011;3793;48.136;11.536;2024-01-30T00:37:12;7.27;;;5.13;;
7503;SDS011;3793;48.136;11.536;2024-01-30T00:39:38;8.70;;;5.27;;
7503;SDS011;3793;48.136;11.536;2024-01-30T00:42:06;10.10;;;5.80;;
7503;SDS011;3793;48.136;11.536;2024-01-30T00:44:34;9.87;;;5.13;;
7503;SDS011;3793;48.136;11.536;2024-01-30T00:47:02;8.13;;;4.50;;
7503;SDS011;3793;48.136;11.536;2024-01-30T00:49:28;7.03;;;5.23;;
7503;SDS011;3793;48.136;11.536;2024-01-30T00:51:55;10.53;;;5.33;;
7503;SDS011;3793;48.136;11.536;2024-01-30T00:54:22;7.33;;;5.13;;
7503;SDS011;3793;48.136;11.536;2024-01-30T00:56:48;8.80;;;5.13;;
7503;SDS011;3793;48.136;11.536;2024-01-30T00:59:16;10.17;;;5.30;;
7503;SDS011;3793;48.136;11.536;2024-01-30T01:01:43;9.67;;;5.30;;
7503;SDS011;3793;48.136;11.536;2024-01-30T01:04:10;10.73;;;5.80;;
7503;SDS011;3793;48.136;11.536;2024-01-30T01:06:36;11.17;;;5.70;;
7503;SDS011;3793;48.136;11.536;2024-01-30T01:09:03;11.73;;;6.23;;
7503;SDS011;3793;48.136;11.536;2024-01-30T01:11:30;11.10;;;6.10;;
7503;SDS011;3793;48.136;11.536;2024-01-30T01:13:56;10.23;;;5.53;;
7503;SDS011;3793;48.136;11.536;2024-01-30T01:16:25;6.93;;;5.53;;
7503;SDS011;3793;48.136;11.536;2024-01-30T01:18:51;10.13;;;5.47;;
7503;SDS011;3793;48.136;11.536;2024-01-30T01:21:18;8.37;;;5.20;;
7503;SDS011;3793;48.136;11.536;2024-01-30T01:23:44;10.80;;;5.27;;
7503;SDS011;3793;48.136;11.536;2024-01-30T01:26:11;9.23;;;5.40;;
7503;SDS011;3793;48.136;11.536;2024-01-30T01:28:39;12.37;;;6.30;;
7503;SDS011;3793;48.136;11.536;2024-01-30T01:31:05;8.67;;;5.17;;
7503;SDS011;3793;48.136;11.536;2024-01-30T01:33:33;11.57;;;6.03;;
7503;SDS011;3793;48.136;11.536;2024-01-30T01:36:02;8.70;;;5.67;;
7503;SDS011;3793;48.136;11.536;2024-01-30T01:38:28;8.00;;;5.30;;
7503;SDS011;3793;48.136;11.536;2024-01-30T01:40:55;8.90;;;5.13;;
7503;SDS011;3793;48.136;11.536;2024-01-30T01:43:22;8.50;;;5.20;;
7503;SDS011;3793;48.136;11.536;2024-01-30T01:45:48;10.73;;;5.40;;
7503;SDS011;3793;48.136;11.536;2024-01-30T01:48:15;9.90;;;5.80;;
7503;SDS011;3793;48.136;11.536;2024-01-30T01:50:43;7.97;;;4.77;;
7503;SDS011;3793;48.136;11.536;2024-01-30T01:53:10;8.87;;;5.57;;
7503;SDS011;3793;48.136;11.536;2024-01-30T01:55:37;7.73;;;4.63;;
7503;SDS011;3793;48.136;11.536;2024-01-30T01:58:03;8.80;;;4.90;;
7503;SDS011;3793;48.136;11.536;2024-01-30T02:00:31;7.50;;;4.87;;
7503;SDS011;3793;48.136;11.536;2024-01-30T02:02:57;9.77;;;4.97;;
7503;SDS011;3793;48.136;11.536;2024-01-30T02:05:25;8.70;;;4.50;;
7503;SDS011;3793;48.136;11.536;2024-01-30T02:07:54;9.83;;;5.00;;
7503;SDS011;3793;48.136;11.536;2024-01-30T02:10:20;9.43;;;4.80;;
7503;SDS011;3793;48.136;11.536;2024-01-30T02:12:48;7.43;;;4.37;;
7503;SDS011;3793;48.136;11.536;2024-01-30T02:15:14;8.53;;;4.87;;
7503;SDS011;3793;48.136;11.536;2024-01-30T02:17:41;8.10;;;4.50;;
7503;SDS011;3793;48.136;11.536;2024-01-30T02:20:08;8.67;;;4.80;;
7503;SDS011;3793;48.136;11.536;2024-01-30T02:22:36;7.57;;;3.90;;
7503;SDS011;3793;48.136;11.536;2024-01-30T02:25:04;6.43;;;3.83;;
7503;SDS011;3793;48.136;11.536;2024-01-30T02:27:30;5.90;;;3.57;;
7503;SDS011;3793;48.136;11.536;2024-01-30T02:29:57;7.17;;;3.97;;
7503;SDS011;3793;48.136;11.536;2024-01-30T02:32:24;5.03;;;3.30;;
7503;SDS011;3793;48.136;11.536;2024-01-30T02:34:50;6.37;;;4.63;;
7503;SDS011;3793;48.136;11.536;2024-01-30T02:37:17;8.40;;;3.90;;
7503;SDS011;3793;48.136;11.536;2024-01-30T02:39:45;7.10;;;4.17;;
7503;SDS011;3793;48.136;11.536;2024-01-30T02:42:11;6.23;;;4.30;;
7503;SDS011;3793;48.136;11.536;2024-01-30T02:44:38;9.40;;;4.10;;
7503;SDS011;3793;48.136;11.536;2024-01-30T02:47:05;6.13;;;3.63;;
7503;SDS011;3793;48.136;11.536;2024-01-30T02:49:31;6.37;;;3.70;;
7503;SDS011;3793;48.136;11.536;2024-01-30T02:51:58;4.27;;;3.47;;
7503;SDS011;3793;48.136;11.536;2024-01-30T02:54:24;5.67;;;2.90;;
7503;SDS011;3793;48.136;11.536;2024-01-30T02:56:53;5.87;;;3.73;;
7503;SDS011;3793;48.136;11.536;2024-01-30T02:59:19;5.13;;;3.47;;
7503;SDS011;3793;48.136;11.536;2024-01-30T03:01:46;5.03;;;3.17;;
7503;SDS011;3793;48.136;11.536;2024-01-30T03:04:13;6.97;;;3.13;;
7503;SDS011;3793;48.136;11.536;2024-01-30T03:06:44;7.40;;;3.33;;
7503;SDS011;3793;48.136;11.536;2024-01-30T03:09:10;4.67;;;3.23;;
7503;SDS011;3793;48.136;11.536;2024-01-30T03:11:37;6.13;;;3.47;;
7503;SDS011;3793;48.136;11.536;2024-01-30T03:14:05;4.83;;;3.40;;
7503;SDS011;3793;48.136;11.536;2024-01-30T03:16:33;4.70;;;3.57;;
7503;SDS011;3793;48.136;11.536;2024-01-30T03:18:59;4.47;;;3.23;;
7503;SDS011;3793;48.136;11.536;2024-01-30T03:21:27;5.30;;;3.23;;
7503;SDS011;3793;48.136;11.536;2024-01-30T03:23:54;7.07;;;3.60;;
7503;SDS011;3793;48.136;11.536;2024-01-30T03:26:20;7.73;;;3.70;;
7503;SDS011;3793;48.136;11.536;2024-01-30T03:28:47;4.13;;;3.43;;
7503;SDS011;3793;48.136;11.536;2024-01-30T03:31:15;4.40;;;3.20;;
7503;SDS011;3793;48.136;11.536;2024-01-30T03:33:42;5.17;;;3.73;;
7503;SDS011;3793;48.136;11.536;2024-01-30T03:36:09;8.63;;;3.63;;
7503;SDS011;3793;48.136;11.536;2024-01-30T03:38:35;5.43;;;3.13;;
7503;SDS011;3793;48.136;11.536;2024-01-30T03:41:02;5.00;;;3.20;;
7503;SDS011;3793;48.136;11.536;2024-01-30T03:43:29;5.83;;;3.40;;
7503;SDS011;3793;48.136;11.536;2024-01-30T03:45:55;6.27;;;3.17;;
7503;SDS011;3793;48.136;11.536;2024-01-30T03:48:24;8.70;;;3.80;;
7503;SDS011;3793;48.136;11.536;2024-01-30T03:50:50;5.60;;;3.07;;
7503;SDS011;3793;48.136;11.536;2024-01-30T03:53:17;4.23;;;2.73;;
7503;SDS011;3793;48.136;11.536;2024-01-30T03:55:44;6.30;;;3.27;;
7503;SDS011;3793;48.136;11.536;2024-01-30T03:58:10;6.50;;;3.00;;
7503;SDS011;3793;48.136;11.536;2024-01-30T04:00:37;4.77;;;3.03;;
7503;SDS011;3793;48.136;11.536;2024-01-30T04:03:04;5.77;;;3.20;;
7503;SDS011;3793;48.136;11.536;2024-01-30T04:05:32;7.13;;;3.57;;
7503;SDS011;3793;48.136;11.536;2024-01-30T04:07:59;4.90;;;3.17;;
7503;SDS011;3793;48.136;11.536;2024-01-30T04:10:26;6.80;;;3.60;;
7503;SDS011;3793;48.136;11.536;2024-01-30T04:12:52;6.40;;;3.50;;
7503;SDS011;3793;48.136;11.536;2024-01-30T04:15:19;5.77;;;3.17;;
7503;SDS011;3793;48.136;11.536;2024-01-30T04:17:45;5.90;;;3.47;;
7503;SDS011;3793;48.136;11.536;2024-01-30T04:20:13;7.50;;;3.67;;
7503;SDS011;3793;48.136;11.536;2024-01-30T04:22:42;4.70;;;3.17;;
7503;SDS011;3793;48.136;11.536;2024-01-30T04:25:08;4.03;;;3.27;;
7503;SDS011;3793;48.136;11.536;2024-01-30T04:27:35;3.97;;;2.90;;
7503;SDS011;3793;48.136;11.536;2024-01-30T04:30:01;5.70;;;3.17;;
7503;SDS011;3793;48.136;11.536;2024-01-30T04:32:28;8.83;;;3.60;;
7503;SDS011;3793;48.136;11.536;2024-01-30T04:34:54;4.77;;;3.27;;
7503;SDS011;3793;48.136;11.536;2024-01-30T04:37:21;5.93;;;3.23;;
7503;SDS011;3793;48.136;11.536;2024-01-30T04:39:49;3.60;;;3.20;;
7503;SDS011;3793;48.136;11.536;2024-01-30T04:42:16;7.00;;;3.20;;
7503;SDS011;3793;48.136;11.536;2024-01-30T04:44:42;7.87;;;3.23;;
7503;SDS011;3793;48.136;11.536;2024-01-30T04:47:09;5.27;;;2.83;;
7503;SDS011;3793;48.136;11.536;2024-01-30T04:49:37;4.53;;;2.60;;
7503;SDS011;3793;48.136;11.536;2024-01-30T04:52:04;5.80;;;3.00;;
7503;SDS011;3793;48.136;11.536;2024-01-30T04:54:31;3.70;;;2.80;;
7503;SDS011;3793;48.136;11.536;2024-01-30T04:56:59;5.60;;;3.13;;
7503;SDS011;3793;48.136;11.536;2024-01-30T04:59:25;4.33;;;2.60;;
7503;SDS011;3793;48.136;11.536;2024-01-30T05:01:52;4.77;;;2.63;;
7503;SDS011;3793;48.136;11.536;2024-01-30T05:04:19;5.03;;;3.03;;
7503;SDS011;3793;48.136;11.536;2024-01-30T05:06:45;4.30;;;3.03;;
7503;SDS011;3793;48.136;11.536;2024-01-30T05:09:12;4.60;;;3.00;;
7503;SDS011;3793;48.136;11.536;2024-01-30T05:11:39;2.80;;;2.43;;
7503;SDS011;3793;48.136;11.536;2024-01-30T05:14:07;4.60;;;2.83;;
7503;SDS011;3793;48.136;11.536;2024-01-30T05:16:33;4.10;;;2.67;;
7503;SDS011;3793;48.136;11.536;2024-01-30T05:19:00;4.97;;;3.13;;
7503;SDS011;3793;48.136;11.536;2024-01-30T05:21:27;5.17;;;3.37;;
7503;SDS011;3793;48.136;11.536;2024-01-30T05:23:54;3.97;;;2.90;;
7503;SDS011;3793;48.136;11.536;2024-01-30T05:26:20;8.37;;;2.90;;
7503;SDS011;3793;48.136;11.536;2024-01-30T05:28:47;4.83;;;2.80;;
7503;SDS011;3793;48.136;11.536;2024-01-30T05:31:16;6.60;;;3.47;;
7503;SDS011;3793;48.136;11.536;2024-01-30T05:33:42;6.03;;;3.50;;
7503;SDS011;3793;48.136;11.536;2024-01-30T05:36:11;4.73;;;2.93;;
7503;SDS011;3793;48.136;11.536;2024-01-30T05:38:37;4.70;;;3.30;;
7503;SDS011;3793;48.136;11.536;2024-01-30T05:41:04;4.60;;;2.70;;
7503;SDS011;3793;48.136;11.536;2024-01-30T05:43:31;4.43;;;2.90;;
7503;SDS011;3793;48.136;11.536;2024-01-30T05:46:00;3.40;;;2.57;;
7503;SDS011;3793;48.136;11.536;2024-01-30T05:48:28;6.73;;;3.17;;
7503;SDS011;3793;48.136;11.536;2024-01-30T05:50:55;4.30;;;3.00;;
7503;SDS011;3793;48.136;11.536;2024-01-30T05:53:21;4.20;;;2.43;;
7503;SDS011;3793;48.136;11.536;2024-01-30T05:55:48;6.33;;;2.70;;
7503;SDS011;3793;48.136;11.536;2024-01-30T05:58:15;4.67;;;2.70;;
7503;SDS011;3793;48.136;11.536;2024-01-30T06:00:41;7.23;;;2.57;;
7503;SDS011;3793;48.136;11.536;2024-01-30T06:03:08;7.10;;;3.77;;
7503;SDS011;3793;48.136;11.536;2024-01-30T06:05:36;5.83;;;2.97;;
7503;SDS011;3793;48.136;11.536;2024-01-30T06:08:03;8.57;;;3.47;;
7503;SDS011;3793;48.136;11.536;2024-01-30T06:10:30;5.13;;;2.70;;
7503;SDS011;3793;48.136;11.536;2024-01-30T06:12:56;5.53;;;3.67;;
7503;SDS011;3793;48.136;11.536;2024-01-30T06:15:26;5.80;;;3.00;;
7503;SDS011;3793;48.136;11.536;2024-01-30T06:17:54;3.67;;;3.00;;
7503;SDS011;3793;48.136;11.536;2024-01-30T06:20:21;5.10;;;2.67;;
7503;SDS011;3793;48.136;11.536;2024-01-30T06:22:49;4.73;;;2.80;;
7503;SDS011;3793;48.136;11.536;2024-01-30T06:25:16;4.80;;;3.07;;
7503;SDS011;3793;48.136;11.536;2024-01-30T06:27:43;9.47;;;3.37;;
7503;SDS011;3793;48.136;11.536;2024-01-30T06:30:10;10.00;;;4.00;;
7503;SDS011;3793;48.136;11.536;2024-01-30T06:32:37;8.27;;;3.50;;
7503;SDS011;3793;48.136;11.536;2024-01-30T06:35:04;9.33;;;3.40;;
7503;SDS011;3793;48.136;11.536;2024-01-30T06:37:31;6.37;;;3.40;;
7503;SDS011;3793;48.136;11.536;2024-01-30T06:39:59;5.60;;;3.23;;
7503;SDS011;3793;48.136;11.536;2024-01-30T06:42:26;12.17;;;4.20;;
7503;SDS011;3793;48.136;11.536;2024-01-30T06:44:53;7.37;;;3.77;;
7503;SDS011;3793;48.136;11.536;2024-01-30T06:47:19;6.57;;;3.73;;
7503;SDS011;3793;48.136;11.536;2024-01-30T06:49:46;7.73;;;4.10;;
7503;SDS011;3793;48.136;11.536;2024-01-30T06:52:13;6.73;;;3.90;;
7503;SDS011;3793;48.136;11.536;2024-01-30T06:54:39;8.10;;;4.00;;
7503;SDS011;3793;48.136;11.536;2024-01-30T06:57:08;7.47;;;4.23;;
7503;SDS011;3793;48.136;11.536;2024-01-30T06:59:37;7.90;;;4.23;;
7503;SDS011;3793;48.136;11.536;2024-01-30T07:02:08;6.97;;;4.07;;
7503;SDS011;3793;48.136;11.536;2024-01-30T07:04:35;6.20;;;4.03;;
7503;SDS011;3793;48.136;11.536;2024-01-30T07:07:02;5.67;;;4.10;;
7503;SDS011;3793;48.136;11.536;2024-01-30T07:09:30;6.07;;;4.60;;
7503;SDS011;3793;48.136;11.536;2024-01-30T07:11:56;7.23;;;4.53;;
7503;SDS011;3793;48.136;11.536;2024-01-30T07:14:25;6.80;;;3.90;;
7503;SDS011;3793;48.136;11.536;2024-01-30T07:16:52;4.87;;;3.57;;
7503;SDS011;3793;48.136;11.536;2024-01-30T07:19:19;5.83;;;4.13;;
7503;SDS011;3793;48.136;11.536;2024-01-30T07:21:45;10.30;;;3.27;;
7503;SDS011;3793;48.136;11.536;2024-01-30T07:24:12;7.27;;;3.97;;
7503;SDS011;3793;48.136;11.536;2024-01-30T07:26:39;5.67;;;3.53;;
7503;SDS011;3793;48.136;11.536;2024-01-30T07:29:06;5.53;;;3.30;;
7503;SDS011;3793;48.136;11.536;2024-01-30T07:31:34;5.30;;;3.47;;
7503;SDS011;3793;48.136;11.536;2024-01-30T07:34:01;6.93;;;3.60;;
7503;SDS011;3793;48.136;11.536;2024-01-30T07:36:27;4.97;;;3.57;;
7503;SDS011;3793;48.136;11.536;2024-01-30T07:38:54;5.47;;;3.23;;
7503;SDS011;3793;48.136;11.536;2024-01-30T07:41:21;9.00;;;3.83;;
7503;SDS011;3793;48.136;11.536;2024-01-30T07:43:48;8.17;;;4.67;;
7503;SDS011;3793;48.136;11.536;2024-01-30T07:46:14;10.87;;;4.00;;
7503;SDS011;3793;48.136;11.536;2024-01-30T07:48:42;6.83;;;4.10;;
7503;SDS011;3793;48.136;11.536;2024-01-30T07:51:09;6.93;;;4.00;;
7503;SDS011;3793;48.136;11.536;2024-01-30T07:53:36;8.47;;;4.30;;
7503;SDS011;3793;48.136;11.536;2024-01-30T07:56:02;14.23;;;3.97;;
7503;SDS011;3793;48.136;11.536;2024-01-30T07:58:29;8.73;;;4.40;;
7503;SDS011;3793;48.136;11.536;2024-01-30T08:00:56;12.43;;;4.33;;
7503;SDS011;3793;48.136;11.536;2024-01-30T08:03:23;15.40;;;4.67;;
7503;SDS011;3793;48.136;11.536;2024-01-30T08:05:51;12.60;;;4.37;;
7503;SDS011;3793;48.136;11.536;2024-01-30T08:08:18;8.87;;;3.93;;
7503;SDS011;3793;48.136;11.536;2024-01-30T08:10:45;9.93;;;4.43;;
7503;SDS011;3793;48.136;11.536;2024-01-30T08:13:11;8.30;;;3.63;;
7503;SDS011;3793;48.136;11.536;2024-01-30T08:15:38;8.13;;;3.97;;
7503;SDS011;3793;48.136;11.536;2024-01-30T08:18:05;13.10;;;4.27;;
7503;SDS011;3793;48.136;11.536;2024-01-30T08:20:32;9.93;;;4.00;;
7503;SDS011;3793;48.136;11.536;2024-01-30T08:23:01;7.83;;;3.73;;
7503;SDS011;3793;48.136;11.536;2024-01-30T08:25:27;8.77;;;3.60;;
7503;SDS011;3793;48.136;11.536;2024-01-30T08:27:55;11.23;;;3.83;;
7503;SDS011;3793;48.136;11.536;2024-01-30T08:30:22;6.43;;;3.80;;
7503;SDS011;3793;48.136;11.536;2024-01-30T08:32:48;6.00;;;3.03;;
7503;SDS011;3793;48.136;11.536;2024-01-30T08:35:15;8.63;;;3.50;;
7503;SDS011;3793;48.136;11.536;2024-01-30T08:37:42;10.83;;;3.50;;
7503;SDS011;3793;48.136;11.536;2024-01-30T08:40:10;7.87;;;4.00;;
7503;SDS011;3793;48.136;11.536;2024-01-30T08:42:37;8.47;;;3.93;;
7503;SDS011;3793;48.136;11.536;2024-01-30T08:45:04;6.27;;;3.80;;
7503;SDS011;3793;48.136;11.536;2024-01-30T08:47:31;12.90;;;5.17;;
7503;SDS011;3793;48.136;11.536;2024-01-30T08:49:58;5.20;;;3.10;;
7503;SDS011;3793;48.136;11.536;2024-01-30T08:52:25;8.47;;;3.10;;
7503;SDS011;3793;48.136;11.536;2024-01-30T08:54:51;7.50;;;3.27;;
7503;SDS011;3793;48.136;11.536;2024-01-30T08:57:21;5.50;;;2.93;;
7503;SDS011;3793;48.136;11.536;2024-01-30T08:59:47;6.23;;;2.90;;
7503;SDS011;3793;48.136;11.536;2024-01-30T09:02:14;6.57;;;2.80;;
7503;SDS011;3793;48.136;11.536;2024-01-30T09:04:46;5.90;;;2.97;;
7503;SDS011;3793;48.136;11.536;2024-01-30T09:07:12;3.93;;;2.40;;
7503;SDS011;3793;48.136;11.536;2024-01-30T09:09:39;4.33;;;3.07;;
7503;SDS011;3793;48.136;11.536;2024-01-30T09:12:07;8.70;;;3.13;;
7503;SDS011;3793;48.136;11.536;2024-01-30T09:14:36;5.57;;;2.57;;
7503;SDS011;3793;48.136;11.536;2024-01-30T09:17:02;9.70;;;3.07;;
7503;SDS011;3793;48.136;11.536;2024-01-30T09:19:30;5.37;;;3.00;;
7503;SDS011;3793;48.136;11.536;2024-01-30T09:21:56;6.60;;;2.80;;
7503;SDS011;3793;48.136;11.536;2024-01-30T09:24:23;7.60;;;2.73;;
7503;SDS011;3793;48.136;11.536;2024-01-30T09:26:50;3.10;;;2.40;;
7503;SDS011;3793;48.136;11.536;2024-01-30T09:29:17;3.33;;;2.20;;
7503;SDS011;3793;48.136;11.536;2024-01-30T09:31:46;3.93;;;2.50;;
7503;SDS011;3793;48.136;11.536;2024-01-30T09:34:12;5.27;;;2.60;;
7503;SDS011;3793;48.136;11.536;2024-01-30T09:36:39;5.27;;;2.90;;
7503;SDS011;3793;48.136;11.536;2024-01-30T09:39:06;5.10;;;2.20;;
7503;SDS011;3793;48.136;11.536;2024-01-30T09:41:33;4.73;;;2.10;;
7503;SDS011;3793;48.136;11.536;2024-01-30T09:44:04;6.03;;;2.50;;
7503;SDS011;3793;48.136;11.536;2024-01-30T09:46:32;5.03;;;2.70;;
7503;SDS011;3793;48.136;11.536;2024-01-30T09:49:01;3.97;;;2.23;;
7503;SDS011;3793;48.136;11.536;2024-01-30T09:51:28;3.63;;;1.90;;
7503;SDS011;3793;48.136;11.536;2024-01-30T09:53:55;9.67;;;2.40;;
7503;SDS011;3793;48.136;11.536;2024-01-30T09:56:22;4.37;;;1.97;;
7503;SDS011;3793;48.136;11.536;2024-01-30T09:58:49;7.47;;;2.77;;
7503;SDS011;3793;48.136;11.536;2024-01-30T10:01:16;5.60;;;2.10;;
7503;SDS011;3793;48.136;11.536;2024-01-30T10:03:44;4.93;;;2.17;;
7503;SDS011;3793;48.136;11.536;2024-01-30T10:06:12;4.40;;;2.03;;
7503;SDS011;3793;48.136;11.536;2024-01-30T10:08:39;6.17;;;2.20;;
7503;SDS011;3793;48.136;11.536;2024-01-30T10:11:06;8.30;;;2.53;;
7503;SDS011;3793;48.136;11.536;2024-01-30T10:13:33;7.73;;;2.80;;
7503;SDS011;3793;48.136;11.536;2024-01-30T10:16:00;7.67;;;2.53;;
7503;SDS011;3793;48.136;11.536;2024-01-30T10:18:28;4.43;;;2.80;;
7503;SDS011;3793;48.136;11.536;2024-01-30T10:20:55;4.23;;;2.30;;
7503;SDS011;3793;48.136;11.536;2024-01-30T10:23:23;4.37;;;1.87;;
7503;SDS011;3793;48.136;11.536;2024-01-30T10:25:50;5.73;;;2.30;;
7503;SDS011;3793;48.136;11.536;2024-01-30T10:28:17;7.17;;;2.40;;
7503;SDS011;3793;48.136;11.536;2024-01-30T10:30:44;8.00;;;3.00;;
7503;SDS011;3793;48.136;11.536;2024-01-30T10:33:11;6.13;;;2.80;;
7503;SDS011;3793;48.136;11.536;2024-01-30T10:35:37;5.50;;;2.43;;
7503;SDS011;3793;48.136;11.536;2024-01-30T10:38:04;4.43;;;2.57;;
7503;SDS011;3793;48.136;11.536;2024-01-30T10:40:34;7.40;;;3.03;;
7503;SDS011;3793;48.136;11.536;2024-01-30T10:43:02;8.63;;;2.80;;
7503;SDS011;3793;48.136;11.536;2024-01-30T10:45:30;8.37;;;2.53;;
7503;SDS011;3793;48.136;11.536;2024-01-30T10:47:58;4.23;;;2.40;;
7503;SDS011;3793;48.136;11.536;2024-01-30T10:50:25;9.00;;;2.33;;
7503;SDS011;3793;48.136;11.536;2024-01-30T10:52:52;10.37;;;2.27;;
7503;SDS011;3793;48.136;11.536;2024-01-30T10:55:18;4.97;;;2.13;;
7503;SDS011;3793;48.136;11.536;2024-01-30T10:57:47;6.53;;;2.50;;
7503;SDS011;3793;48.136;11.536;2024-01-30T11:00:14;4.53;;;2.17;;
7503;SDS011;3793;48.136;11.536;2024-01-30T11:02:43;3.67;;;1.93;;
7503;SDS011;3793;48.136;11.536;2024-01-30T11:05:11;1.70;;;1.40;;
7503;SDS011;3793;48.136;11.536;2024-01-30T11:07:38;3.70;;;1.70;;
7503;SDS011;3793;48.136;11.536;2024-01-30T11:10:06;2.73;;;1.80;;
7503;SDS011;3793;48.136;11.536;2024-01-30T11:12:38;1.80;;;1.60;;
7503;SDS011;3793;48.136;11.536;2024-01-30T11:15:10;4.07;;;2.00;;
7503;SDS011;3793;48.136;11.536;2024-01-30T11:17:43;3.93;;;1.87;;
7503;SDS011;3793;48.136;11.536;2024-01-30T11:20:11;4.07;;;1.90;;
7503;SDS011;3793;48.136;11.536;2024-01-30T11:22:40;3.67;;;1.87;;
7503;SDS011;3793;48.136;11.536;2024-01-30T11:25:10;5.00;;;2.10;;
7503;SDS011;3793;48.136;11.536;2024-01-30T11:27:37;4.27;;;1.90;;
7503;SDS011;3793;48.136;11.536;2024-01-30T11:30:04;2.80;;;1.60;;
7503;SDS011;3793;48.136;11.536;2024-01-30T11:32:34;4.23;;;2.40;;
7503;SDS011;3793;48.136;11.536;2024-01-30T11:35:02;3.10;;;1.83;;
7503;SDS011;3793;48.136;11.536;2024-01-30T11:37:30;3.93;;;1.67;;
7503;SDS011;3793;48.136;11.536;2024-01-30T11:39:57;4.27;;;1.60;;
7503;SDS011;3793;48.136;11.536;2024-01-30T11:42:25;2.23;;;1.80;;
7503;SDS011;3793;48.136;11.536;2024-01-30T11:44:52;4.17;;;1.83;;
7503;SDS011;3793;48.136;11.536;2024-01-30T11:47:19;7.73;;;2.10;;
7503;SDS011;3793;48.136;11.536;2024-01-30T11:49:47;2.37;;;1.90;;
7503;SDS011;3793;48.136;11.536;2024-01-30T11:52:14;2.90;;;1.80;;
7503;SDS011;3793;48.136;11.536;2024-01-30T11:54:41;7.40;;;2.30;;
7503;SDS011;3793;48.136;11.536;2024-01-30T11:57:08;3.67;;;1.90;;
7503;SDS011;3793;48.136;11.536;2024-01-30T11:59:35;4.17;;;2.20;;
7503;SDS011;3793;48.136;11.536;2024-01-30T12:02:01;4.13;;;2.40;;
7503;SDS011;3793;48.136;11.536;2024-01-30T12:04:28;2.77;;;1.77;;
7503;SDS011;3793;48.136;11.536;2024-01-30T12:06:57;3.23;;;1.93;;
7503;SDS011;3793;48.136;11.536;2024-01-30T12:09:24;4.23;;;1.93;;
7503;SDS011;3793;48.136;11.536;2024-01-30T12:11:52;2.97;;;1.80;;
7503;SDS011;3793;48.136;11.536;2024-01-30T12:14:19;2.97;;;1.90;;
7503;SDS011;3793;48.136;11.536;2024-01-30T12:16:48;4.53;;;2.00;;
7503;SDS011;3793;48.136;11.536;2024-01-30T12:19:22;4.07;;;1.53;;
7503;SDS011;3793;48.136;11.536;2024-01-30T12:21:53;3.07;;;1.87;;
7503;SDS011;3793;48.136;11.536;2024-01-30T12:24:21;1.70;;;1.20;;
7503;SDS011;3793;48.136;11.536;2024-01-30T12:26:49;3.47;;;2.17;;
7503;SDS011;3793;48.136;11.536;2024-01-30T12:29:17;3.43;;;1.90;;
7503;SDS011;3793;48.136;11.536;2024-01-30T12:31:43;4.60;;;2.00;;
7503;SDS011;3793;48.136;11.536;2024-01-30T12:34:13;3.93;;;2.00;;
7503;SDS011;3793;48.136;11.536;2024-01-30T12:36:40;3.33;;;2.70;;
7503;SDS011;3793;48.136;11.536;2024-01-30T12:39:10;7.47;;;2.47;;
7503;SDS011;3793;48.136;11.536;2024-01-30T12:41:39;5.07;;;1.97;;
7503;SDS011;3793;48.136;11.536;2024-01-30T12:44:06;3.83;;;1.70;;
7503;SDS011;3793;48.136;11.536;2024-01-30T12:46:33;3.63;;;1.70;;
7503;SDS011;3793;48.136;11.536;2024-01-30T12:49:04;1.93;;;1.63;;
7503;SDS011;3793;48.136;11.536;2024-01-30T12:51:33;3.60;;;1.50;;
7503;SDS011;3793;48.136;11.536;2024-01-30T12:54:04;2.40;;;1.60;;
7503;SDS011;3793;48.136;11.536;2024-01-30T12:56:48;3.83;;;2.00;;
7503;SDS011;3793;48.136;11.536;2024-01-30T12:59:28;2.90;;;1.77;;
7503;SDS011;3793;48.136;11.536;2024-01-30T13:01:58;3.00;;;1.50;;
7503;SDS011;3793;48.136;11.536;2024-01-30T13:04:28;2.70;;;1.57;;
7503;SDS011;3793;48.136;11.536;2024-01-30T13:06:55;2.37;;;1.50;;
7503;SDS011;3793;48.136;11.536;2024-01-30T13:09:22;4.03;;;1.60;;
7503;SDS011;3793;48.136;11.536;2024-01-30T13:11:51;2.67;;;1.43;;
7503;SDS011;3793;48.136;11.536;2024-01-30T13:14:18;4.13;;;1.73;;
7503;SDS011;3793;48.136;11.536;2024-01-30T13:16:45;4.57;;;1.70;;
7503;SDS011;3793;48.136;11.536;2024-01-30T13:19:12;2.33;;;1.50;;
7503;SDS011;3793;48.136;11.536;2024-01-30T13:21:39;2.73;;;1.70;;
7503;SDS011;3793;48.136;11.536;2024-01-30T13:24:06;2.20;;;1.57;;
7503;SDS011;3793;48.136;11.536;2024-01-30T13:26:33;1.57;;;1.40;;
7503;SDS011;3793;48.136;11.536;2024-01-30T13:29:02;4.03;;;1.80;;
7503;SDS011;3793;48.136;11.536;2024-01-30T13:31:28;2.23;;;1.33;;
7503;SDS011;3793;48.136;11.536;2024-01-30T13:33:55;4.27;;;1.50;;
7503;SDS011;3793;48.136;11.536;2024-01-30T13:36:22;2.57;;;1.60;;
7503;SDS011;3793;48.136;11.536;2024-01-30T13:38:49;5.20;;;1.70;;
7503;SDS011;3793;48.136;11.536;2024-01-30T13:41:15;2.63;;;1.83;;
7503;SDS011;3793;48.136;11.536;2024-01-30T13:43:43;4.00;;;1.80;;
7503;SDS011;3793;48.136;11.536;2024-01-30T13:46:11;3.27;;;1.77;;
7503;SDS011;3793;48.136;11.536;2024-01-30T13:48:38;6.13;;;1.40;;
7503;SDS011;3793;48.136;11.536;2024-01-30T13:53:47;2.97;;;1.63;;
7503;SDS011;3793;48.136;11.536;2024-01-30T13:56:15;5.73;;;1.60;;
7503;SDS011;3793;48.136;11.536;2024-01-30T13:58:42;3.03;;;1.83;;
7503;SDS011;3793;48.136;11.536;2024-01-30T14:01:09;2.30;;;1.33;;
7503;SDS011;3793;48.136;11.536;2024-01-30T14:03:42;4.87;;;1.93;;
7503;SDS011;3793;48.136;11.536;2024-01-30T14:06:11;1.90;;;1.47;;
7503;SDS011;3793;48.136;11.536;2024-01-30T14:08:51;4.80;;;1.80;;
7503;SDS011;3793;48.136;11.536;2024-01-30T14:11:20;4.17;;;1.73;;
7503;SDS011;3793;48.136;11.536;2024-01-30T14:14:00;3.43;;;1.97;;
7503;SDS011;3793;48.136;11.536;2024-01-30T14:16:32;3.40;;;2.10;;
7503;SDS011;3793;48.136;11.536;2024-01-30T14:19:05;3.37;;;2.07;;
7503;SDS011;3793;48.136;11.536;2024-01-30T14:21:33;4.50;;;2.17;;
7503;SDS011;3793;48.136;11.536;2024-01-30T14:24:02;3.50;;;1.70;;
7503;SDS011;3793;48.136;11.536;2024-01-30T14:26:30;2.97;;;1.60;;
7503;SDS011;3793;48.136;11.536;2024-01-30T14:28:57;1.67;;;1.50;;
7503;SDS011;3793;48.136;11.536;2024-01-30T14:31:27;2.97;;;1.90;;
7503;SDS011;3793;48.136;11.536;2024-01-30T14:36:53;4.23;;;1.80;;
7503;SDS011;3793;48.136;11.536;2024-01-30T14:39:33;7.13;;;2.00;;
7503;SDS011;3793;48.136;11.536;2024-01-30T14:42:13;3.63;;;1.77;;
7503;SDS011;3793;48.136;11.536;2024-01-30T14:44:41;4.17;;;1.87;;
7503;SDS011;3793;48.136;11.536;2024-01-30T14:47:08;5.47;;;2.27;;
7503;SDS011;3793;48.136;11.536;2024-01-30T14:49:35;2.60;;;2.00;;
7503;SDS011;3793;48.136;11.536;2024-01-30T14:52:03;3.40;;;1.83;;
7503;SDS011;3793;48.136;11.536;2024-01-30T14:54:30;4.03;;;1.63;;
7503;SDS011;3793;48.136;11.536;2024-01-30T14:56:57;7.13;;;2.20;;
7503;SDS011;3793;48.136;11.536;2024-01-30T14:59:31;5.20;;;2.20;;
7503;SDS011;3793;48.136;11.536;2024-01-30T15:01:59;5.17;;;2.13;;
7503;SDS011;3793;48.136;11.536;2024-01-30T15:04:26;3.23;;;2.20;;
7503;SDS011;3793;48.136;11.536;2024-01-30T15:06:52;3.73;;;2.10;;